createdAt,value
2018-09-21T00:02:09.746Z,8.30
2018-09-21T00:04:37.958Z,8.67
2018-09-21T00:07:06.172Z,8.50
2018-09-21T00:09:34.388Z,9.47
2018-09-21T00:12:02.622Z,8.33
2018-09-21T00:14:30.830Z,8.30
2018-09-21T00:16:59.052Z,8.47
2018-09-21T00:19:27.254Z,9.03
2018-09-21T00:21:55.467Z,9.10
2018-09-21T00:24:23.683Z,9.07
2018-09-21T00:26:52.206Z,8.97
2018-09-21T00:29:20.503Z,8.37
2018-09-21T00:31:48.719Z,8.80
2018-09-21T00:34:17.003Z,9.40
2018-09-21T00:36:45.311Z,8.87
2018-09-21T00:39:13.527Z,9.50
2018-09-21T00:41:41.718Z,7.93
2018-09-21T00:44:09.918Z,7.80
2018-09-21T00:46:38.142Z,9.47
2018-09-21T00:49:06.347Z,9.73
2018-09-21T00:51:34.535Z,8.73
2018-09-21T00:54:02.784Z,8.93
2018-09-21T00:56:30.966Z,9.23
2018-09-21T00:58:59.204Z,8.73
2018-09-21T01:01:27.428Z,8.57
2018-09-21T01:03:55.644Z,8.70
2018-09-21T01:06:23.842Z,9.30
2018-09-21T01:08:52.043Z,8.90
2018-09-21T01:11:20.226Z,8.30
2018-09-21T01:13:48.435Z,8.63
2018-09-21T01:16:16.628Z,9.10
2018-09-21T01:18:44.835Z,9.13
2018-09-21T01:21:13.023Z,9.80
2018-09-21T01:23:41.215Z,8.60
2018-09-21T01:26:09.411Z,8.33
2018-09-21T01:28:37.616Z,8.37
2018-09-21T01:31:06.051Z,8.80
2018-09-21T01:33:34.267Z,9.03
2018-09-21T01:36:02.475Z,9.07
2018-09-21T01:38:30.747Z,8.97
2018-09-21T01:40:58.968Z,8.80
2018-09-21T01:43:27.178Z,8.83
2018-09-21T01:45:55.408Z,9.23
2018-09-21T01:48:23.657Z,9.63
2018-09-21T01:50:51.879Z,9.40
2018-09-21T01:53:20.088Z,10.00
2018-09-21T01:55:48.359Z,8.70
2018-09-21T01:58:16.531Z,9.57
2018-09-21T02:00:44.751Z,9.40
2018-09-21T02:03:13.005Z,8.87
2018-09-21T02:05:41.218Z,9.80
2018-09-21T02:08:09.607Z,9.77
2018-09-21T02:10:37.823Z,8.60
2018-09-21T02:13:06.040Z,9.83
2018-09-21T02:15:34.257Z,8.70
2018-09-21T02:18:02.471Z,9.00
2018-09-21T02:20:30.691Z,9.73
2018-09-21T02:22:58.906Z,8.80
2018-09-21T02:25:27.123Z,9.90
2018-09-21T02:27:55.331Z,9.67
2018-09-21T02:30:23.553Z,8.60
2018-09-21T02:32:51.767Z,9.70
2018-09-21T02:35:19.987Z,9.13
2018-09-21T02:37:48.230Z,10.03
2018-09-21T02:40:16.442Z,10.00
2018-09-21T02:42:44.636Z,11.03
2018-09-21T02:45:12.839Z,10.17
2018-09-21T02:47:41.036Z,9.77
2018-09-21T02:50:09.239Z,9.53
2018-09-21T02:52:37.450Z,9.03
2018-09-21T02:55:05.703Z,10.67
2018-09-21T02:57:33.915Z,9.80
2018-09-21T03:00:02.103Z,10.53
2018-09-21T03:02:30.319Z,9.00
2018-09-21T03:04:58.507Z,10.00
2018-09-21T03:07:26.718Z,10.30
2018-09-21T03:09:55.436Z,10.77
2018-09-21T03:12:23.637Z,9.53
2018-09-21T03:14:51.868Z,10.13
2018-09-21T03:17:20.064Z,10.07
2018-09-21T03:19:48.255Z,9.20
2018-09-21T03:22:16.475Z,9.50
2018-09-21T03:24:44.668Z,9.07
2018-09-21T03:27:12.870Z,9.50
2018-09-21T03:29:41.060Z,9.87
2018-09-21T03:32:09.266Z,9.33
2018-09-21T03:34:37.462Z,9.23
2018-09-21T03:37:05.698Z,9.10
2018-09-21T03:39:33.928Z,10.40
2018-09-21T03:42:02.142Z,9.83
2018-09-21T03:44:30.366Z,8.97
2018-09-21T03:46:58.588Z,10.43
2018-09-21T03:49:26.796Z,10.50
2018-09-21T03:51:55.023Z,9.00
2018-09-21T03:54:23.252Z,10.63
2018-09-21T03:56:51.472Z,10.00
2018-09-21T03:59:19.696Z,9.93
2018-09-21T04:01:47.928Z,9.53
2018-09-21T04:04:16.222Z,10.00
2018-09-21T04:06:44.454Z,10.20
2018-09-21T04:09:12.681Z,10.10
2018-09-21T04:11:41.024Z,10.17
2018-09-21T04:14:09.272Z,11.20
2018-09-21T04:16:37.523Z,9.20
2018-09-21T04:19:05.927Z,9.80
2018-09-21T04:21:34.146Z,9.10
2018-09-21T04:24:02.366Z,9.70
2018-09-21T04:26:30.579Z,8.93
2018-09-21T04:28:58.805Z,9.40
2018-09-21T04:31:27.004Z,9.30
2018-09-21T04:33:55.230Z,10.30
2018-09-21T04:36:23.435Z,10.33
2018-09-21T04:38:51.674Z,9.47
2018-09-21T04:41:19.875Z,10.07
2018-09-21T04:43:48.083Z,9.80
2018-09-21T04:46:16.271Z,9.80
2018-09-21T04:48:44.475Z,9.70
2018-09-21T04:51:12.679Z,9.23
2018-09-21T04:53:40.878Z,9.40
2018-09-21T04:56:09.174Z,9.73
2018-09-21T04:58:37.389Z,9.67
2018-09-21T05:01:05.591Z,9.13
2018-09-21T05:03:33.788Z,9.43
2018-09-21T05:06:01.983Z,9.13
2018-09-21T05:08:30.183Z,9.17
2018-09-21T05:10:58.839Z,8.97
2018-09-21T05:13:27.039Z,9.70
2018-09-21T05:15:55.243Z,9.17
2018-09-21T05:18:23.451Z,8.40
2018-09-21T05:20:51.644Z,8.97
2018-09-21T05:23:19.847Z,9.07
2018-09-21T05:25:48.039Z,8.90
2018-09-21T05:28:16.244Z,9.53
2018-09-21T05:30:44.435Z,9.33
2018-09-21T05:33:12.647Z,8.90
2018-09-21T05:35:40.878Z,9.70
2018-09-21T05:38:09.055Z,8.00
2018-09-21T05:40:37.263Z,9.03
2018-09-21T05:43:05.883Z,8.00
2018-09-21T05:45:34.075Z,8.70
2018-09-21T05:48:02.287Z,8.00
2018-09-21T05:50:30.471Z,7.27
2018-09-21T05:52:58.672Z,7.47
2018-09-21T05:55:26.879Z,7.70
2018-09-21T05:57:55.082Z,8.30
2018-09-21T06:00:23.299Z,8.33
2018-09-21T06:02:51.555Z,8.20
2018-09-21T06:05:19.718Z,8.10
2018-09-21T06:07:47.974Z,8.23
2018-09-21T06:10:16.127Z,7.60
2018-09-21T06:12:44.334Z,7.13
2018-09-21T06:15:12.568Z,6.80
2018-09-21T06:17:40.779Z,6.70
2018-09-21T06:20:12.477Z,7.00
2018-09-21T06:22:45.034Z,7.67
2018-09-21T06:25:06.218Z,7.17
2018-09-21T06:27:34.432Z,7.60
2018-09-21T06:30:02.671Z,7.00
2018-09-21T06:32:30.887Z,7.80
2018-09-21T06:34:59.115Z,7.07
2018-09-21T06:37:27.334Z,6.43
2018-09-21T06:39:55.644Z,6.27
2018-09-21T06:42:23.935Z,7.23
2018-09-21T06:44:52.129Z,6.23
2018-09-21T06:47:20.366Z,6.10
2018-09-21T06:49:48.649Z,6.30
2018-09-21T06:52:16.827Z,6.50
2018-09-21T06:54:45.055Z,6.47
2018-09-21T06:57:13.302Z,6.57
2018-09-21T06:59:41.803Z,6.03
2018-09-21T07:02:10.020Z,6.30
2018-09-21T07:04:38.231Z,6.00
2018-09-21T07:07:06.460Z,6.13
2018-09-21T07:09:34.685Z,6.20
2018-09-21T07:12:02.918Z,6.70
2018-09-21T07:14:31.152Z,7.07
2018-09-21T07:16:59.351Z,6.63
2018-09-21T07:19:27.580Z,6.10
2018-09-21T07:21:55.832Z,6.37
2018-09-21T07:24:24.096Z,6.90
2018-09-21T07:26:52.313Z,7.33
2018-09-21T07:29:20.523Z,6.17
2018-09-21T07:31:48.756Z,6.97
2018-09-21T07:34:16.970Z,7.37
2018-09-21T07:36:45.195Z,7.07
2018-09-21T07:39:13.429Z,6.87
2018-09-21T07:41:41.663Z,9.37
2018-09-21T07:44:09.883Z,6.27
2018-09-21T07:46:38.111Z,7.30
2018-09-21T07:49:06.457Z,6.30
2018-09-21T07:51:34.554Z,7.00
2018-09-21T07:54:02.758Z,6.17
2018-09-21T07:56:30.983Z,6.83
2018-09-21T07:58:59.200Z,8.10
2018-09-21T08:01:27.436Z,9.40
2018-09-21T08:03:55.651Z,6.97
2018-09-21T08:06:23.867Z,6.77
2018-09-21T08:08:52.082Z,6.70
2018-09-21T08:11:20.308Z,7.30
2018-09-21T08:13:48.522Z,6.53
2018-09-21T08:16:16.761Z,6.33
2018-09-21T08:18:44.983Z,6.63
2018-09-21T08:21:13.218Z,6.57
2018-09-21T08:23:41.423Z,6.30
2018-09-21T08:26:09.660Z,6.80
2018-09-21T08:28:37.922Z,7.00
2018-09-21T08:31:06.148Z,6.87
2018-09-21T08:33:34.395Z,6.97
2018-09-21T08:36:02.623Z,6.40
2018-09-21T08:38:30.871Z,7.10
2018-09-21T08:40:59.124Z,6.13
2018-09-21T08:43:27.346Z,6.97
2018-09-21T08:45:55.568Z,6.97
2018-09-21T08:48:23.791Z,7.10
2018-09-21T08:50:52.004Z,6.60
2018-09-21T08:53:20.331Z,6.60
2018-09-21T08:55:48.552Z,6.93
2018-09-21T08:58:16.770Z,6.90
2018-09-21T09:00:44.994Z,6.53
2018-09-21T09:03:13.391Z,5.80
2018-09-21T09:05:41.466Z,7.50
2018-09-21T09:08:09.749Z,6.90
2018-09-21T09:10:37.962Z,6.30
2018-09-21T09:13:06.202Z,6.97
2018-09-21T09:15:34.458Z,6.63
2018-09-21T09:18:02.707Z,7.07
2018-09-21T09:20:30.918Z,7.10
2018-09-21T09:22:59.180Z,7.50
2018-09-21T09:25:27.391Z,6.53
2018-09-21T09:27:55.631Z,6.40
2018-09-21T09:30:23.849Z,6.50
2018-09-21T09:32:52.110Z,7.10
2018-09-21T09:35:20.339Z,6.70
2018-09-21T09:37:48.566Z,14.40
2018-09-21T09:40:16.803Z,8.23
2018-09-21T09:42:45.068Z,6.90
2018-09-21T09:45:13.249Z,6.40
2018-09-21T09:47:41.510Z,7.50
2018-09-21T09:50:09.894Z,6.43
2018-09-21T09:52:38.112Z,6.70
2018-09-21T09:55:06.412Z,7.03
2018-09-21T09:57:34.746Z,6.70
2018-09-21T10:00:02.970Z,6.43
2018-09-21T10:02:31.207Z,6.87
2018-09-21T10:04:59.420Z,6.70
2018-09-21T10:07:27.634Z,7.03
2018-09-21T10:09:55.850Z,7.10
2018-09-21T10:12:24.183Z,6.37
2018-09-21T10:14:52.411Z,6.10
2018-09-21T10:17:20.627Z,6.50
2018-09-21T10:19:48.864Z,6.63
2018-09-21T10:22:17.087Z,6.67
2018-09-21T10:24:45.310Z,6.50
2018-09-21T10:27:13.572Z,6.97
2018-09-21T10:29:41.811Z,6.77
2018-09-21T10:32:10.030Z,6.63
2018-09-21T10:34:38.324Z,6.43
2018-09-21T10:37:06.493Z,6.60
2018-09-21T10:39:34.736Z,6.23
2018-09-21T10:42:02.951Z,6.90
2018-09-21T10:44:31.189Z,7.17
2018-09-21T10:46:59.407Z,7.10
2018-09-21T10:49:27.638Z,6.43
2018-09-21T10:51:55.854Z,6.30
2018-09-21T10:54:24.079Z,6.93
2018-09-21T10:56:52.307Z,16.97
2018-09-21T10:59:20.534Z,8.70
2018-09-21T11:01:48.750Z,7.23
2018-09-21T11:04:16.975Z,6.53
2018-09-21T11:06:45.200Z,7.43
2018-09-21T11:09:13.434Z,13.77
2018-09-21T11:11:41.640Z,6.80
2018-09-21T11:14:09.867Z,6.90
2018-09-21T11:16:38.088Z,6.30
2018-09-21T11:19:06.307Z,6.73
2018-09-21T11:21:34.515Z,7.20
2018-09-21T11:24:02.747Z,6.70
2018-09-21T11:26:30.960Z,6.97
2018-09-21T11:28:59.187Z,6.47
2018-09-21T11:31:27.407Z,7.63
2018-09-21T11:33:55.708Z,7.17
2018-09-21T11:36:23.927Z,7.30
2018-09-21T11:38:52.142Z,7.07
2018-09-21T11:41:20.388Z,6.80
2018-09-21T11:43:48.639Z,7.00
2018-09-21T11:46:16.919Z,7.07
2018-09-21T11:48:45.127Z,7.00
2018-09-21T11:51:13.347Z,7.10
2018-09-21T11:53:41.566Z,7.63
2018-09-21T11:56:09.803Z,7.10
2018-09-21T11:58:38.026Z,7.10
2018-09-21T12:01:06.270Z,6.30
2018-09-21T12:03:34.503Z,6.67
2018-09-21T12:06:05.547Z,6.83
2018-09-21T12:08:34.417Z,6.97
2018-09-21T12:11:02.643Z,6.60
2018-09-21T12:13:30.859Z,7.07
2018-09-21T12:15:59.152Z,7.40
2018-09-21T12:18:27.354Z,7.93
2018-09-21T12:20:55.582Z,7.07
2018-09-21T12:23:23.807Z,6.13
2018-09-21T12:25:52.071Z,7.27
2018-09-21T12:28:20.291Z,7.40
2018-09-21T12:30:48.534Z,6.90
2018-09-21T12:33:16.750Z,7.17
2018-09-21T12:35:44.974Z,7.00
2018-09-21T12:38:13.191Z,6.70
2018-09-21T12:40:41.430Z,7.13
2018-09-21T12:43:09.647Z,6.90
2018-09-21T12:45:37.875Z,7.30
2018-09-21T12:48:06.088Z,7.00
2018-09-21T12:50:34.326Z,7.03
2018-09-21T12:53:02.551Z,7.00
2018-09-21T12:55:30.785Z,6.50
2018-09-21T12:57:59.046Z,5.90
2018-09-21T13:00:31.474Z,51.00
2018-09-21T13:02:59.689Z,7.80
2018-09-21T13:05:27.895Z,6.10
2018-09-21T13:07:56.117Z,6.30
2018-09-21T13:10:24.331Z,6.10
2018-09-21T13:12:52.563Z,6.50
2018-09-21T13:15:20.779Z,6.50
2018-09-21T13:17:49.007Z,5.67
2018-09-21T13:20:17.218Z,5.77
2018-09-21T13:22:45.446Z,5.63
2018-09-21T13:25:13.655Z,6.00
2018-09-21T13:27:41.899Z,5.83
2018-09-21T13:30:10.108Z,5.70
2018-09-21T13:32:38.340Z,6.00
2018-09-21T13:35:06.544Z,5.63
2018-09-21T13:37:34.771Z,6.23
2018-09-21T13:40:02.990Z,5.23
2018-09-21T13:42:31.207Z,5.80
2018-09-21T13:44:59.416Z,5.40
2018-09-21T13:47:27.643Z,5.40
2018-09-21T13:49:55.865Z,5.50
2018-09-21T13:52:24.090Z,5.40
2018-09-21T13:54:52.335Z,5.20
2018-09-21T13:57:20.567Z,4.37
2018-09-21T13:59:48.803Z,5.13
2018-09-21T14:02:17.015Z,4.67
2018-09-21T14:04:45.231Z,4.63
2018-09-21T14:07:13.467Z,5.00
2018-09-21T14:09:41.676Z,5.93
2018-09-21T14:12:09.903Z,5.00
2018-09-21T14:14:38.118Z,13.20
2018-09-21T14:17:06.658Z,4.83
2018-09-21T14:19:34.880Z,12.33
2018-09-21T14:22:03.102Z,4.53
2018-09-21T14:24:31.318Z,3.43
2018-09-21T14:26:59.542Z,3.73
2018-09-21T14:29:27.754Z,3.70
2018-09-21T14:31:55.992Z,3.47
2018-09-21T14:34:24.191Z,2.80
2018-09-21T14:36:52.499Z,3.27
2018-09-21T14:39:20.836Z,3.17
2018-09-21T14:41:49.059Z,3.60
2018-09-21T14:44:17.303Z,3.57
2018-09-21T14:46:45.519Z,3.00
2018-09-21T14:49:13.767Z,3.20
2018-09-21T14:51:41.976Z,3.20
2018-09-21T14:54:10.263Z,2.53
2018-09-21T14:56:38.487Z,3.17
2018-09-21T14:59:08.636Z,2.80
2018-09-21T15:01:40.306Z,2.40
2018-09-21T15:04:08.543Z,5.23
2018-09-21T15:06:36.775Z,4.17
2018-09-21T15:09:06.903Z,5.03
2018-09-21T15:11:35.130Z,2.40
2018-09-21T15:14:03.370Z,2.70
2018-09-21T15:16:31.666Z,2.33
2018-09-21T15:18:59.874Z,2.50
2018-09-21T15:21:28.099Z,2.50
2018-09-21T15:23:57.201Z,2.33
2018-09-21T15:26:25.431Z,2.23
2018-09-21T15:28:53.663Z,2.43
2018-09-21T15:31:21.874Z,2.40
2018-09-21T15:33:50.105Z,2.40
2018-09-21T15:36:18.335Z,2.47
2018-09-21T15:38:46.567Z,2.20
2018-09-21T15:41:14.808Z,2.30
2018-09-21T15:43:43.164Z,2.20
2018-09-21T15:46:11.267Z,2.03
2018-09-21T15:48:39.496Z,1.50
2018-09-21T15:51:08.020Z,1.00
2018-09-21T15:53:36.279Z,1.40
2018-09-21T15:56:04.671Z,1.20
2018-09-21T15:58:32.910Z,1.10
2018-09-21T16:01:01.115Z,1.10
2018-09-21T16:03:29.327Z,1.90
2018-09-21T16:05:57.622Z,1.77
2018-09-21T16:08:25.783Z,1.17
2018-09-21T16:10:54.050Z,1.20
2018-09-21T16:13:22.276Z,1.37
2018-09-21T16:15:50.506Z,0.70
2018-09-21T16:18:18.726Z,0.90
2018-09-21T16:20:46.965Z,1.10
2018-09-21T16:23:15.198Z,0.90
2018-09-21T16:25:43.433Z,0.80
2018-09-21T16:28:11.655Z,1.30
2018-09-21T16:30:39.875Z,1.00
2018-09-21T16:33:08.147Z,0.60
2018-09-21T16:35:36.399Z,0.83
2018-09-21T16:38:04.662Z,0.80
2018-09-21T16:40:32.903Z,1.00
2018-09-21T16:43:01.115Z,0.70
2018-09-21T16:45:29.343Z,1.00
2018-09-21T16:47:57.563Z,1.00
2018-09-21T16:50:25.903Z,1.10
2018-09-21T16:52:54.346Z,1.13
2018-09-21T16:55:22.758Z,1.20
2018-09-21T16:57:51.072Z,1.10
2018-09-21T17:00:19.341Z,1.20
2018-09-21T17:02:47.599Z,1.10
2018-09-21T17:05:15.851Z,1.27
2018-09-21T17:07:44.121Z,1.00
2018-09-21T17:10:12.413Z,0.90
2018-09-21T17:12:40.649Z,1.30
2018-09-21T17:15:08.945Z,1.50
2018-09-21T17:17:37.178Z,1.43
2018-09-21T17:20:05.595Z,1.60
2018-09-21T17:22:33.735Z,1.50
2018-09-21T17:25:01.984Z,1.40
2018-09-21T17:27:30.234Z,1.50
2018-09-21T17:29:58.527Z,1.43
2018-09-21T17:32:26.824Z,1.50
2018-09-21T17:34:55.167Z,1.53
2018-09-21T17:37:23.469Z,1.50
2018-09-21T17:39:51.705Z,1.30
2018-09-21T17:42:19.976Z,1.20
2018-09-21T17:44:48.243Z,1.40
2018-09-21T17:47:16.770Z,1.43
2018-09-21T17:49:45.016Z,1.50
2018-09-21T17:52:13.267Z,1.03
2018-09-21T17:54:41.519Z,1.30
2018-09-21T17:57:09.837Z,2.33
2018-09-21T17:59:38.096Z,1.40
2018-09-21T18:02:06.368Z,1.23
2018-09-21T18:04:34.616Z,1.57
2018-09-21T18:07:02.867Z,1.17
2018-09-21T18:09:31.128Z,1.27
2018-09-21T18:11:59.448Z,1.50
2018-09-21T18:15:01.129Z,1.57
2018-09-21T18:17:37.159Z,1.40
2018-09-21T18:20:13.932Z,1.60
2018-09-21T18:22:42.247Z,1.50
2018-09-21T18:25:10.985Z,1.23
2018-09-21T18:27:39.254Z,1.30
2018-09-21T18:30:09.382Z,1.40
2018-09-21T18:32:37.651Z,1.40
2018-09-21T18:35:06.064Z,1.30
2018-09-21T18:37:34.408Z,1.87
2018-09-21T18:40:02.620Z,1.60
2018-09-21T18:42:30.894Z,1.80
2018-09-21T18:44:59.169Z,1.30
2018-09-21T18:47:27.433Z,1.57
2018-09-21T18:49:55.751Z,2.00
2018-09-21T18:52:24.028Z,1.70
2018-09-21T18:54:52.399Z,1.60
2018-09-21T18:57:20.662Z,1.60
2018-09-21T18:59:48.932Z,1.50
2018-09-21T19:02:17.211Z,1.47
2018-09-21T19:04:45.457Z,1.60
2018-09-21T19:07:19.312Z,1.60
2018-09-21T19:09:47.552Z,1.67
2018-09-21T19:12:15.804Z,1.60
2018-09-21T19:14:44.072Z,1.70
2018-09-21T19:17:12.328Z,1.97
2018-09-21T19:19:40.600Z,1.60
2018-09-21T19:22:08.851Z,1.70
2018-09-21T19:24:37.106Z,1.97
2018-09-21T19:27:05.394Z,2.33
2018-09-21T19:29:33.638Z,2.00
2018-09-21T19:32:01.979Z,2.73
2018-09-21T19:34:30.287Z,1.73
2018-09-21T19:36:58.551Z,2.70
2018-09-21T19:39:26.843Z,2.70
2018-09-21T19:41:55.341Z,2.30
2018-09-21T19:44:23.615Z,1.80
2018-09-21T19:46:51.913Z,2.40
2018-09-21T19:49:20.357Z,2.77
2018-09-21T19:51:48.609Z,2.33
2018-09-21T19:54:16.863Z,2.40
2018-09-21T19:56:45.107Z,2.93
2018-09-21T19:59:13.369Z,2.67
2018-09-21T20:01:41.671Z,3.00
2018-09-21T20:04:09.967Z,2.70
2018-09-21T20:06:38.905Z,2.80
2018-09-21T20:09:24.378Z,3.20
2018-09-21T20:11:52.635Z,3.40
2018-09-21T20:14:20.896Z,3.10
2018-09-21T20:16:49.401Z,3.37
2018-09-21T20:19:17.688Z,4.13
2018-09-21T20:21:45.944Z,3.90
2018-09-21T20:24:14.219Z,3.70
2018-09-21T20:26:42.555Z,3.37
2018-09-21T20:29:10.835Z,3.57
2018-09-21T20:31:45.467Z,3.70
2018-09-21T20:34:13.752Z,3.80
2018-09-21T20:36:42.011Z,3.40
2018-09-21T20:39:10.372Z,3.13
2018-09-21T20:41:38.622Z,3.70
2018-09-21T20:44:06.904Z,3.70
2018-09-21T20:47:10.764Z,3.23
2018-09-21T20:49:39.201Z,3.50
2018-09-21T20:52:07.500Z,2.83
2018-09-21T20:54:36.945Z,3.50
2018-09-21T20:57:05.487Z,2.90
2018-09-21T20:59:33.757Z,2.70
2018-09-21T21:02:02.019Z,2.93
2018-09-21T21:04:30.308Z,3.20
2018-09-21T21:06:58.668Z,2.77
2018-09-21T21:09:26.918Z,3.10
2018-09-21T21:11:55.175Z,2.90
2018-09-21T21:14:23.551Z,3.03
2018-09-21T21:16:51.816Z,2.63
2018-09-21T21:19:20.109Z,2.50
2018-09-21T21:21:48.597Z,3.13
2018-09-21T21:24:16.896Z,3.07
2018-09-21T21:26:45.153Z,2.50
2018-09-21T21:29:13.379Z,2.57
2018-09-21T21:31:41.655Z,3.50
2018-09-21T21:34:09.911Z,2.90
2018-09-21T21:39:24.518Z,2.73
2018-09-21T21:41:52.774Z,2.23
2018-09-21T21:44:21.114Z,3.10
2018-09-21T21:46:49.384Z,2.47
2018-09-21T21:49:17.678Z,2.43
2018-09-21T21:51:45.984Z,3.73
2018-09-21T21:54:14.319Z,2.87
2018-09-21T21:56:42.603Z,2.33
2018-09-21T21:59:11.131Z,2.20
2018-09-21T22:01:46.712Z,2.60
2018-09-21T22:04:16.198Z,2.03
2018-09-21T22:06:44.472Z,2.00
2018-09-21T22:09:13.079Z,1.90
2018-09-21T22:11:46.684Z,2.30
2018-09-21T22:14:15.135Z,3.60
2018-09-21T22:16:43.445Z,2.10
2018-09-21T22:19:12.204Z,1.70
2018-09-21T22:21:40.473Z,2.13
2018-09-21T22:24:08.763Z,1.87
2018-09-21T22:26:37.089Z,1.87
2018-09-21T22:29:05.346Z,1.40
2018-09-21T22:31:33.619Z,1.97
2018-09-21T22:34:01.863Z,2.00
2018-09-21T22:36:30.147Z,2.27
2018-09-21T22:38:58.397Z,2.00
2018-09-21T22:41:26.649Z,1.83
2018-09-21T22:43:54.890Z,1.90
2018-09-21T22:46:23.139Z,1.90
2018-09-21T22:48:52.180Z,1.80
2018-09-21T22:51:20.395Z,2.07
2018-09-21T22:53:48.619Z,2.40
2018-09-21T22:56:16.834Z,1.90
2018-09-21T22:58:45.055Z,1.87
2018-09-21T23:01:13.267Z,1.83
2018-09-21T23:03:41.495Z,2.03
2018-09-21T23:06:09.720Z,1.80
2018-09-21T23:08:37.975Z,2.60
2018-09-21T23:11:06.187Z,2.10
2018-09-21T23:13:34.406Z,1.80
2018-09-21T23:16:02.611Z,1.60
2018-09-21T23:18:30.834Z,1.70
2018-09-21T23:20:59.042Z,2.10
2018-09-21T23:23:27.263Z,1.80
2018-09-21T23:25:55.473Z,1.80
2018-09-21T23:28:23.685Z,2.60
2018-09-21T23:30:51.901Z,1.80
2018-09-21T23:33:20.119Z,1.90
2018-09-21T23:35:48.322Z,1.70
2018-09-21T23:38:16.548Z,1.80
2018-09-21T23:40:44.775Z,1.70
2018-09-21T23:43:12.998Z,1.90
2018-09-21T23:45:41.209Z,1.70
2018-09-21T23:48:09.482Z,2.43
2018-09-21T23:50:37.707Z,2.10
2018-09-21T23:53:05.926Z,1.87
2018-09-21T23:55:34.139Z,1.90
2018-09-21T23:58:02.363Z,1.83
